Terminal Aerodrome Forecast
Issued by NWS Milwaukee/Sullivan, WI

Home | Current Version | Previous Version | Text Only | Print | Product List | Glossary On
Versions: 1 2 3 4 5 6 7 8 9 10 11 12 13 14 15 16 17 18 19 20 21 22 23 24 25 26
000
FTUS43 KMKX 231131
TAFMKE
TAF
KMKE 231131Z 2312/2418 30007KT P6SM SKC
     FM231500 32011G18KT P6SM SCT030
     FM231700 32012G18KT P6SM SCT040
      TEMPO 2317/2321 BKN040
     FM232100 33008KT P6SM SCT050
     FM240100 VRB05KT P6SM FEW050
     FM241600 03008KT P6SM BKN035=

USA.gov is the U.S. government's official web portal to all federal, state and local government web resources and services.